Shirahamamaru — JG4872 — position and weather

sailwx.info

Track history (hours):
 
Tides and Currents Weather Stations Pressure Air Temp Water Temp Dewpoint Dewpoint Depression Visibility Wind Speed Wind Dir Waves Ship Positions

Shirahamamaru

Last reported at 2017-May-29 04:00 UTC. Time now 2017-May-29 04:02 UTC.
Position N 35°12' E 139°46'.

Length 79 m; draft 3.2 m.

Type: Passenger vessel. MMSI: 431000239.

Date/timePositionNaut miles runAvg speedWind from/ knotsBaromVisibWave heightAir tempDewpointWater temp
2017-May-29 04:00N 35°12' E 139°46'3 6.8
2017-May-29 03:31N 35°10' E 139°49'3 5.6
2017-May-29 03:01N 35°12' E 139°46'3 5.4
2017-May-29 02:27N 35°13' E 139°43'3 5.8
2017-May-29 02:01N 35°12' E 139°46'3 6.6
2017-May-29 01:30N 35°10' E 139°49'3 5.8
2017-May-29 01:00N 35°12' E 139°46'3 6.0
2017-May-29 00:30N 35°13' E 139°43'2 4.6
2017-May-29 00:00N 35°12' E 139°45'4 7.2
2017-May-28 23:30N 35°10' E 139°49'4 7.7
2017-May-28 23:00N 35°12' E 139°45'2 4.0
2017-May-28 22:30N 35°13' E 139°43'510.7
2017-May-28 22:00N 35°11' E 139°49'0 0.4
2017-May-28 21:30N 35°11' E 139°48'510.3
2017-May-28 21:00N 35°13' E 139°43'0 0.0
2017-May-28 11:44N 35°13' E 139°43'2 7.3
2017-May-28 11:30N 35°13' E 139°45'4 8.6
2017-May-28 11:00N 35°10' E 139°49'4 7.0
2017-May-28 10:30N 35°12' E 139°45'2 4.7
2017-May-28 10:00N 35°13' E 139°43'611.3
2017-May-28 09:30N 35°10' E 139°49'0 0.4
2017-May-28 09:01N 35°10' E 139°49'611.3
2017-May-28 08:30N 35°13' E 139°43'1 2.1
2017-May-28 08:00N 35°13' E 139°44'5 7.6
2017-May-28 07:23N 35°10' E 139°49'1 2.4
2017-May-28 07:00N 35°11' E 139°48'5 9.8
2017-May-28 06:30N 35°13' E 139°43'1 3.0
2017-May-28 06:00N 35°13' E 139°45'4 8.9
2017-May-28 05:30N 35°10' E 139°49'2 4.0
2017-May-28 05:00N 35°11' E 139°47'4 7.8
2017-May-28 04:30N 35°13' E 139°43'3 6.0
2017-May-28 04:01N 35°12' E 139°46'3 6.2
2017-May-28 03:30N 35°10' E 139°49'3 5.3
2017-May-28 03:00N 35°12' E 139°46'3 6.1
2017-May-28 02:29N 35°13' E 139°43'3 6.4
2017-May-28 02:00N 35°12' E 139°46'3 5.6
2017-May-28 01:30N 35°10' E 139°49'3 5.5
2017-May-28 01:00N 35°12' E 139°46'3 6.3
2017-May-28 00:30N 35°13' E 139°43'2 4.6
2017-May-28 00:00N 35°12' E 139°46'4 7.2
2017-May-27 23:30N 35°10' E 139°49'4 8.0
2017-May-27 23:00N 35°12' E 139°45'2 3.7
2017-May-27 22:30N 35°13' E 139°43'510.7
2017-May-27 22:00N 35°11' E 139°48'0 0.4
2017-May-27 21:30N 35°11' E 139°48'510.2
2017-May-27 21:00N 35°13' E 139°43'0 0.0
2017-May-27 20:30N 35°13' E 139°43'0 0.0
2017-May-27 11:38N 35°13' E 139°43'1 4.4
2017-May-27 11:30N 35°13' E 139°44'510.6
2017-May-27 11:00N 35°10' E 139°49'3 5.7
2017-May-27 10:30N 35°12' E 139°46'3 6.1
2017-May-27 10:00N 35°13' E 139°43'4 8.5
2017-May-27 09:30N 35°11' E 139°47'2 3.4
2017-May-27 09:01N 35°10' E 139°49'611.5
2017-May-27 08:30N 35°13' E 139°43'0 0.8
2017-May-27 08:00N 35°13' E 139°44'510.8
2017-May-27 07:30N 35°10' E 139°49'1 2.5
2017-May-27 07:00N 35°11' E 139°48'5 9.3
2017-May-27 06:30N 35°13' E 139°43'1 2.7
2017-May-27 06:00N 35°13' E 139°45'5 9.2
2017-May-27 05:30N 35°10' E 139°49'2 3.9
2017-May-27 05:00N 35°11' E 139°47'4 7.5
2017-May-27 04:29N 35°13' E 139°43'2 5.0
2017-May-27 04:00N 35°12' E 139°46'4 7.1
2017-May-27 03:30N 35°10' E 139°49'3 5.3
2017-May-27 03:00N 35°12' E 139°46'3 6.4
2017-May-27 02:30N 35°13' E 139°43'2 4.4
2017-May-27 02:00N 35°12' E 139°45'4 7.4
2017-May-27 01:30N 35°10' E 139°49'3 6.0
2017-May-27 01:00N 35°12' E 139°46'3 5.7
2017-May-27 00:30N 35°13' E 139°43'2 4.2
2017-May-27 00:00N 35°12' E 139°45'4 7.6
2017-May-26 23:30N 35°10' E 139°49'4 7.8
2017-May-26 23:00N 35°12' E 139°45'2 4.0
2017-May-26 22:30N 35°13' E 139°43'510.6
2017-May-26 22:00N 35°11' E 139°48'0 0.7
2017-May-26 21:30N 35°11' E 139°48'5 9.7
2017-May-26 21:00N 35°13' E 139°43'0 0.0
2017-May-26 20:30N 35°13' E 139°43'0 0.0
2017-May-26 11:40N 35°13' E 139°43'1 4.6
2017-May-26 11:30N 35°13' E 139°44'510.5
2017-May-26 11:00N 35°10' E 139°49'3 6.5
2017-May-26 10:30N 35°13' E 139°46'3 5.7
2017-May-26 10:00N 35°13' E 139°43'4 8.7
2017-May-26 09:30N 35°11' E 139°47'1 2.9
2017-May-26 09:00N 35°10' E 139°49'611.4
2017-May-26 08:30N 35°13' E 139°43'1 1.3
2017-May-26 08:00N 35°13' E 139°44'510.5
2017-May-26 07:30N 35°10' E 139°49'1 2.0
2017-May-26 07:00N 35°11' E 139°48'5 9.7
2017-May-26 06:30N 35°13' E 139°43'2 3.4
2017-May-26 06:00N 35°13' E 139°45'4 8.4
2017-May-26 05:30N 35°10' E 139°49'2 3.9
2017-May-26 05:00N 35°11' E 139°47'4 7.8
2017-May-26 04:30N 35°13' E 139°43'2 4.9
2017-May-26 04:00N 35°12' E 139°45'3 6.8
2017-May-26 03:30N 35°10' E 139°49'3 5.8
2017-May-26 03:00N 35°12' E 139°46'3 5.8
2017-May-26 02:29N 35°13' E 139°43'3 5.4
2017-May-26 02:00N 35°12' E 139°46'3 6.6
2017-May-26 01:30N 35°10' E 139°49'3 5.9
2017-May-26 01:00N 35°12' E 139°46'3 5.2
2017-May-26 00:26N 35°13' E 139°43'2 5.8
2017-May-26 00:00N 35°12' E 139°46'3 6.7
2017-May-25 23:30N 35°10' E 139°49'4 7.9
2017-May-25 23:00N 35°12' E 139°45'2 3.9
2017-May-25 22:30N 35°13' E 139°43'510.8
2017-May-25 22:00N 35°10' E 139°49'0 0.6
2017-May-25 21:30N 35°11' E 139°48'510.0
2017-May-25 21:00N 35°13' E 139°43'0 0.0
2017-May-25 11:39N 35°13' E 139°43'1 4.6
2017-May-25 11:30N 35°13' E 139°44'510.6
2017-May-25 11:00N 35°10' E 139°49'3 6.3
2017-May-25 10:30N 35°13' E 139°46'3 5.7
2017-May-25 09:59N 35°13' E 139°43'4 8.9
2017-May-25 09:30N 35°11' E 139°47'2 3.3
2017-May-25 09:00N 35°10' E 139°49'611.7
2017-May-25 08:30N 35°13' E 139°43'1 1.5
2017-May-25 08:00N 35°13' E 139°44'510.1
2017-May-25 07:30N 35°10' E 139°49'1 1.6
2017-May-25 07:00N 35°11' E 139°48'5 8.9
2017-May-25 06:26N 35°13' E 139°43'2 3.8
2017-May-25 06:00N 35°13' E 139°45'4 8.6
2017-May-25 05:30N 35°10' E 139°49'2 3.9
2017-May-25 05:00N 35°11' E 139°47'4 7.9
2017-May-25 04:30N 35°13' E 139°43'3 5.3
2017-May-25 04:00N 35°12' E 139°46'3 6.7
2017-May-25 03:30N 35°10' E 139°49'3 6.1
2017-May-25 03:00N 35°12' E 139°46'3 5.7
2017-May-25 02:30N 35°13' E 139°43'3 5.2
2017-May-25 02:00N 35°12' E 139°46'3 6.7
2017-May-25 01:30N 35°10' E 139°49'3 5.9
2017-May-25 01:00N 35°12' E 139°46'3 5.8
2017-May-25 00:30N 35°13' E 139°43'3 6.0
2017-May-25 00:00N 35°12' E 139°46'3 6.4
2017-May-24 23:30N 35°10' E 139°49'4 7.6
2017-May-24 23:00N 35°12' E 139°45'2 4.1
2017-May-24 22:30N 35°13' E 139°43'510.7
2017-May-24 22:00N 35°11' E 139°49'0 0.4
2017-May-24 21:30N 35°11' E 139°48'510.3
2017-May-24 21:00N 35°13' E 139°43'0 0.0
2017-May-24 11:36N 35°13' E 139°43'0 3.8
2017-May-24 11:31N 35°13' E 139°43'611.2
2017-May-24 11:00N 35°10' E 139°49'3 5.6
2017-May-24 10:31N 35°11' E 139°46'3 6.2
2017-May-24 10:00N 35°13' E 139°43'4 8.6
2017-May-24 09:31N 35°11' E 139°47'2 3.4
2017-May-24 09:01N 35°10' E 139°49'611.7
2017-May-24 08:31N 35°13' E 139°43'0 0.6
2017-May-24 08:00N 35°13' E 139°43'610.8
2017-May-24 07:30N 35°10' E 139°49'2 4.0
2017-May-24 07:00N 35°12' E 139°47'4 8.0
2017-May-24 06:30N 35°13' E 139°43'1 3.0
2017-May-24 06:01N 35°13' E 139°45'5 8.8
2017-May-24 05:30N 35°10' E 139°49'2 3.8
2017-May-24 05:01N 35°11' E 139°47'4 7.9
2017-May-24 04:30N 35°13' E 139°43'3 5.1
2017-May-24 04:01N 35°12' E 139°46'3 6.6
2017-May-24 03:30N 35°10' E 139°49'3 6.2
2017-May-24 03:00N 35°12' E 139°46'3 5.3
2017-May-24 02:29N 35°13' E 139°43'2 4.8
2017-May-24 02:01N 35°12' E 139°45'4 7.3
2017-May-24 01:31N 35°10' E 139°49'3 5.8
2017-May-24 01:01N 35°12' E 139°46'3 4.8
2017-May-24 00:24N 35°13' E 139°43'2 5.9
2017-May-24 00:01N 35°12' E 139°46'4 7.2
2017-May-23 23:31N 35°10' E 139°49'4 7.8
2017-May-23 23:01N 35°12' E 139°45'2 4.0
2017-May-23 22:31N 35°13' E 139°43'510.5
2017-May-23 22:01N 35°11' E 139°48'0 0.3
2017-May-23 21:31N 35°11' E 139°48'510.1
2017-May-23 21:00N 35°13' E 139°43'0 0.0
2017-May-23 11:37N 35°13' E 139°43'0 3.7
2017-May-23 11:30N 35°13' E 139°43'611.0
2017-May-23 11:00N 35°10' E 139°49'3 6.2
2017-May-23 10:30N 35°12' E 139°46'3 5.7
2017-May-23 10:00N 35°13' E 139°43'4 8.8
2017-May-23 09:30N 35°11' E 139°48'1 2.8
2017-May-23 09:00N 35°10' E 139°49'611.3
2017-May-23 08:30N 35°13' E 139°43'0 0.4
2017-May-23 08:00N 35°13' E 139°43'510.9
2017-May-23 07:30N 35°10' E 139°49'1 2.7
2017-May-23 07:00N 35°11' E 139°48'5 9.0
2017-May-23 06:30N 35°13' E 139°43'2 3.3
2017-May-23 06:00N 35°13' E 139°45'4 8.7
2017-May-23 05:30N 35°10' E 139°49'2 3.7
2017-May-23 05:00N 35°11' E 139°47'4 7.9
2017-May-23 04:30N 35°13' E 139°43'2 4.6
2017-May-23 04:01N 35°12' E 139°45'4 7.2
2017-May-23 03:30N 35°10' E 139°49'3 6.0
2017-May-23 03:00N 35°12' E 139°46'3 6.1
2017-May-23 02:30N 35°13' E 139°43'2 4.8
2017-May-23 02:00N 35°13' E 139°46'4 7.2
2017-May-23 01:30N 35°10' E 139°49'3 5.9
2017-May-23 01:00N 35°12' E 139°46'3 5.8
2017-May-23 00:30N 35°13' E 139°43'2 4.8
2017-May-23 00:00N 35°13' E 139°46'4 7.2
2017-May-22 23:30N 35°10' E 139°49'4 7.7
2017-May-22 23:00N 35°13' E 139°45'2 3.9
2017-May-22 22:28N 35°13' E 139°43'511.2
2017-May-22 22:00N 35°11' E 139°48'0 0.6
2017-May-22 21:30N 35°11' E 139°48'5 9.5
2017-May-22 21:00N 35°13' E 139°43'0 0.0
2017-May-22 11:38N 35°13' E 139°43'0 2.9
2017-May-22 11:30N 35°13' E 139°43'611.1
2017-May-22 11:00N 35°10' E 139°49'3 5.9
2017-May-22 10:30N 35°12' E 139°46'3 6.0
2017-May-22 10:00N 35°13' E 139°43'4 8.6
2017-May-22 09:30N 35°11' E 139°48'1 2.8
2017-May-22 09:01N 35°10' E 139°49'610.9
2017-May-22 08:30N 35°13' E 139°43'0 0.1
2017-May-22 08:00N 35°13' E 139°43'611.1
2017-May-22 07:30N 35°10' E 139°49'1 1.8
2017-May-22 07:00N 35°11' E 139°48'5 9.6
2017-May-22 06:29N 35°13' E 139°43'2 3.2
2017-May-22 06:00N 35°13' E 139°45'4 8.8
2017-May-22 05:30N 35°10' E 139°49'2 3.9
2017-May-22 05:00N 35°11' E 139°47'4 7.7
2017-May-22 04:30N 35°13' E 139°43'3 5.3
2017-May-22 04:00N 35°13' E 139°46'3 7.0
2017-May-22 03:30N 35°10' E 139°49'3 5.7
2017-May-22 03:00N 35°12' E 139°46'3 5.6
2017-May-22 02:28N 35°13' E 139°43'2 5.4
2017-May-22 02:00N 35°12' E 139°46'3 7.0
2017-May-22 01:30N 35°10' E 139°49'3 5.9
2017-May-22 01:00N 35°12' E 139°46'3 5.9
2017-May-22 00:30N 35°13' E 139°43'3 5.1
2017-May-22 00:00N 35°12' E 139°46'3 6.8
2017-May-21 23:30N 35°10' E 139°49'4 7.9
2017-May-21 23:00N 35°12' E 139°45'2 3.9
2017-May-21 22:30N 35°13' E 139°43'611.2
2017-May-21 22:00N 35°10' E 139°49'1 1.4
2017-May-21 21:30N 35°11' E 139°48'5 9.8
2017-May-21 21:00N 35°13' E 139°43'0 0.0
2017-May-21 20:30N 35°13' E 139°43'0 0.0
2017-May-21 11:10N 35°13' E 139°43'1 5.0
2017-May-21 11:00N 35°13' E 139°44'5 5.5
2017-May-21 10:05N 35°10' E 139°49'0 0.0
2017-May-21 09:58N 35°10' E 139°49'4 8.4
2017-May-21 09:30N 35°12' E 139°45'2 4.2
2017-May-21 09:00N 35°13' E 139°43'5 9.0
2017-May-21 08:30N 35°11' E 139°48'1 2.6
2017-May-21 07:59N 35°10' E 139°49'510.2
2017-May-21 07:30N 35°13' E 139°44'1 1.7
2017-May-21 06:54N 35°13' E 139°43'411.1
2017-May-21 06:30N 35°11' E 139°48'2 3.1
2017-May-21 05:59N 35°10' E 139°49'510.0
2017-May-21 05:31N 35°13' E 139°44'1 2.3
2017-May-21 05:01N 35°13' E 139°43'4 6.9
2017-May-21 04:30N 35°12' E 139°47'2 4.9
2017-May-21 04:00N 35°10' E 139°49'5 8.7
2017-May-21 03:26N 35°13' E 139°44'1 2.1
2017-May-21 02:57N 35°13' E 139°43'510.4
2017-May-21 02:31N 35°11' E 139°48'1 2.6
2017-May-21 02:01N 35°10' E 139°49'5 9.8
2017-May-21 01:30N 35°13' E 139°44'1 2.0
2017-May-21 01:00N 35°13' E 139°43'4 8.8
2017-May-21 00:31N 35°11' E 139°48'2 2.9
2017-May-20 23:59N 35°10' E 139°49'610.2
2017-May-20 23:25N 35°13' E 139°43'0 0.6
2017-May-20 23:00N 35°13' E 139°43'4 7.2
2017-May-20 22:31N 35°11' E 139°47'2 4.5
2017-May-20 22:00N 35°10' E 139°49'610.3
2017-May-20 21:26N 35°13' E 139°43'0 0.6
2017-May-20 21:00N 35°13' E 139°43'0 0.0
2017-May-20 11:09N 35°13' E 139°43'1 5.1
2017-May-20 10:59N 35°13' E 139°44'5 8.4
2017-May-20 10:23N 35°10' E 139°49'0 0.0
2017-May-20 09:54N 35°10' E 139°49'410.5
2017-May-20 09:31N 35°13' E 139°45'2 4.0
2017-May-20 08:59N 35°13' E 139°43'5 9.4
2017-May-20 08:29N 35°11' E 139°48'1 2.4
2017-May-20 08:00N 35°10' E 139°49'510.1
2017-May-20 07:30N 35°13' E 139°44'1 1.8
2017-May-20 06:59N 35°13' E 139°43'5 9.3
2017-May-20 06:30N 35°11' E 139°48'1 2.6
2017-May-20 05:58N 35°10' E 139°49'510.6
2017-May-20 05:30N 35°13' E 139°44'1 2.1
2017-May-20 04:59N 35°13' E 139°43'3 6.9
2017-May-20 04:30N 35°12' E 139°47'3 4.9
2017-May-20 03:59N 35°10' E 139°49'4 8.7
2017-May-20 03:30N 35°13' E 139°45'2 3.2
2017-May-20 02:59N 35°13' E 139°43'5 9.3
2017-May-20 02:28N 35°11' E 139°48'1 2.4
2017-May-20 02:00N 35°10' E 139°49'610.4
2017-May-20 01:27N 35°13' E 139°43'0 0.7
2017-May-20 00:59N 35°13' E 139°43'5 9.4
2017-May-20 00:30N 35°11' E 139°48'1 2.6
2017-May-20 00:00N 35°10' E 139°49'5 9.9
2017-May-19 23:30N 35°13' E 139°44'1 2.0
2017-May-19 23:00N 35°13' E 139°43'4 7.0
2017-May-19 22:30N 35°12' E 139°47'2 4.6
2017-May-19 21:59N 35°10' E 139°49'510.1
2017-May-19 21:29N 35°13' E 139°44'1 1.7
2017-May-19 20:59N 35°13' E 139°43'0 0.0
2017-May-19 11:13N 35°13' E 139°43'2 7.8
2017-May-19 11:00N 35°13' E 139°45'4 4.4
2017-May-19 10:02N 35°10' E 139°49'0 0.0
2017-May-19 09:58N 35°10' E 139°49'4 8.1
2017-May-19 09:31N 35°12' E 139°45'2 4.1
2017-May-19 09:00N 35°13' E 139°43'4 9.0
2017-May-19 08:30N 35°11' E 139°48'2 3.0
2017-May-19 08:00N 35°10' E 139°49'5 9.7
2017-May-19 07:30N 35°13' E 139°44'1 1.7
2017-May-19 06:54N 35°13' E 139°43'411.3
2017-May-19 06:30N 35°11' E 139°48'1 2.8
2017-May-19 05:59N 35°10' E 139°49'0 0.0
2017-May-19 05:30N 35°10' E 139°49'6 9.5
2017-May-19 04:53N 35°13' E 139°43'0 0.2
2017-May-19 04:26N 35°13' E 139°43'  
Track history (hours):
 
Tides and Currents Weather Stations Pressure Air Temp Water Temp Dewpoint Dewpoint Depression Visibility Wind Speed Wind Dir Waves Ship Positions

Shirahamamaru

Last reported at 2017-May-29 04:00 UTC. Time now 2017-May-29 04:02 UTC.
Position N 35°12' E 139°46'.

Length 79 m; draft 3.2 m.

Type: Passenger vessel. MMSI: 431000239.

Date/timePositionNaut miles runAvg speedWind from/ knotsBaromVisibWave heightAir tempDewpointWater temp
2017-May-29 04:00N 35°12' E 139°46'3 6.8
2017-May-29 03:31N 35°10' E 139°49'3 5.6
2017-May-29 03:01N 35°12' E 139°46'3 5.4
2017-May-29 02:27N 35°13' E 139°43'3 5.8
2017-May-29 02:01N 35°12' E 139°46'3 6.6
2017-May-29 01:30N 35°10' E 139°49'3 5.8
2017-May-29 01:00N 35°12' E 139°46'3 6.0
2017-May-29 00:30N 35°13' E 139°43'2 4.6
2017-May-29 00:00N 35°12' E 139°45'4 7.2
2017-May-28 23:30N 35°10' E 139°49'4 7.7
2017-May-28 23:00N 35°12' E 139°45'2 4.0
2017-May-28 22:30N 35°13' E 139°43'510.7
2017-May-28 22:00N 35°11' E 139°49'0 0.4
2017-May-28 21:30N 35°11' E 139°48'510.3
2017-May-28 21:00N 35°13' E 139°43'0 0.0
2017-May-28 11:44N 35°13' E 139°43'2 7.3
2017-May-28 11:30N 35°13' E 139°45'4 8.6
2017-May-28 11:00N 35°10' E 139°49'4 7.0
2017-May-28 10:30N 35°12' E 139°45'2 4.7
2017-May-28 10:00N 35°13' E 139°43'611.3
2017-May-28 09:30N 35°10' E 139°49'0 0.4
2017-May-28 09:01N 35°10' E 139°49'611.3
2017-May-28 08:30N 35°13' E 139°43'1 2.1
2017-May-28 08:00N 35°13' E 139°44'5 7.6
2017-May-28 07:23N 35°10' E 139°49'1 2.4
2017-May-28 07:00N 35°11' E 139°48'5 9.8
2017-May-28 06:30N 35°13' E 139°43'1 3.0
2017-May-28 06:00N 35°13' E 139°45'4 8.9
2017-May-28 05:30N 35°10' E 139°49'2 4.0
2017-May-28 05:00N 35°11' E 139°47'4 7.8
2017-May-28 04:30N 35°13' E 139°43'3 6.0
2017-May-28 04:01N 35°12' E 139°46'3 6.2
2017-May-28 03:30N 35°10' E 139°49'3 5.3
2017-May-28 03:00N 35°12' E 139°46'3 6.1
2017-May-28 02:29N 35°13' E 139°43'3 6.4
2017-May-28 02:00N 35°12' E 139°46'3 5.6
2017-May-28 01:30N 35°10' E 139°49'3 5.5
2017-May-28 01:00N 35°12' E 139°46'3 6.3
2017-May-28 00:30N 35°13' E 139°43'2 4.6
2017-May-28 00:00N 35°12' E 139°46'4 7.2
2017-May-27 23:30N 35°10' E 139°49'4 8.0
2017-May-27 23:00N 35°12' E 139°45'2 3.7
2017-May-27 22:30N 35°13' E 139°43'510.7
2017-May-27 22:00N 35°11' E 139°48'0 0.4
2017-May-27 21:30N 35°11' E 139°48'510.2
2017-May-27 21:00N 35°13' E 139°43'0 0.0
2017-May-27 20:30N 35°13' E 139°43'0 0.0
2017-May-27 11:38N 35°13' E 139°43'1 4.4
2017-May-27 11:30N 35°13' E 139°44'510.6
2017-May-27 11:00N 35°10' E 139°49'3 5.7
2017-May-27 10:30N 35°12' E 139°46'3 6.1
2017-May-27 10:00N 35°13' E 139°43'4 8.5
2017-May-27 09:30N 35°11' E 139°47'2 3.4
2017-May-27 09:01N 35°10' E 139°49'611.5
2017-May-27 08:30N 35°13' E 139°43'0 0.8
2017-May-27 08:00N 35°13' E 139°44'510.8
2017-May-27 07:30N 35°10' E 139°49'1 2.5
2017-May-27 07:00N 35°11' E 139°48'5 9.3
2017-May-27 06:30N 35°13' E 139°43'1 2.7
2017-May-27 06:00N 35°13' E 139°45'5 9.2
2017-May-27 05:30N 35°10' E 139°49'2 3.9
2017-May-27 05:00N 35°11' E 139°47'4 7.5
2017-May-27 04:29N 35°13' E 139°43'2 5.0
2017-May-27 04:00N 35°12' E 139°46'4 7.1
2017-May-27 03:30N 35°10' E 139°49'3 5.3
2017-May-27 03:00N 35°12' E 139°46'3 6.4
2017-May-27 02:30N 35°13' E 139°43'2 4.4
2017-May-27 02:00N 35°12' E 139°45'4 7.4
2017-May-27 01:30N 35°10' E 139°49'3 6.0
2017-May-27 01:00N 35°12' E 139°46'3 5.7
2017-May-27 00:30N 35°13' E 139°43'2 4.2
2017-May-27 00:00N 35°12' E 139°45'4 7.6
2017-May-26 23:30N 35°10' E 139°49'4 7.8
2017-May-26 23:00N 35°12' E 139°45'2 4.0
2017-May-26 22:30N 35°13' E 139°43'510.6
2017-May-26 22:00N 35°11' E 139°48'0 0.7
2017-May-26 21:30N 35°11' E 139°48'5 9.7
2017-May-26 21:00N 35°13' E 139°43'0 0.0
2017-May-26 20:30N 35°13' E 139°43'0 0.0
2017-May-26 11:40N 35°13' E 139°43'1 4.6
2017-May-26 11:30N 35°13' E 139°44'510.5
2017-May-26 11:00N 35°10' E 139°49'3 6.5
2017-May-26 10:30N 35°13' E 139°46'3 5.7
2017-May-26 10:00N 35°13' E 139°43'4 8.7
2017-May-26 09:30N 35°11' E 139°47'1 2.9
2017-May-26 09:00N 35°10' E 139°49'611.4
2017-May-26 08:30N 35°13' E 139°43'1 1.3
2017-May-26 08:00N 35°13' E 139°44'510.5
2017-May-26 07:30N 35°10' E 139°49'1 2.0
2017-May-26 07:00N 35°11' E 139°48'5 9.7
2017-May-26 06:30N 35°13' E 139°43'2 3.4
2017-May-26 06:00N 35°13' E 139°45'4 8.4
2017-May-26 05:30N 35°10' E 139°49'2 3.9
2017-May-26 05:00N 35°11' E 139°47'4 7.8
2017-May-26 04:30N 35°13' E 139°43'2 4.9
2017-May-26 04:00N 35°12' E 139°45'3 6.8
2017-May-26 03:30N 35°10' E 139°49'3 5.8
2017-May-26 03:00N 35°12' E 139°46'3 5.8
2017-May-26 02:29N 35°13' E 139°43'3 5.4
2017-May-26 02:00N 35°12' E 139°46'3 6.6
2017-May-26 01:30N 35°10' E 139°49'3 5.9
2017-May-26 01:00N 35°12' E 139°46'3 5.2
2017-May-26 00:26N 35°13' E 139°43'2 5.8
2017-May-26 00:00N 35°12' E 139°46'3 6.7
2017-May-25 23:30N 35°10' E 139°49'4 7.9
2017-May-25 23:00N 35°12' E 139°45'2 3.9
2017-May-25 22:30N 35°13' E 139°43'510.8
2017-May-25 22:00N 35°10' E 139°49'0 0.6
2017-May-25 21:30N 35°11' E 139°48'510.0
2017-May-25 21:00N 35°13' E 139°43'0 0.0
2017-May-25 11:39N 35°13' E 139°43'1 4.6
2017-May-25 11:30N 35°13' E 139°44'510.6
2017-May-25 11:00N 35°10' E 139°49'3 6.3
2017-May-25 10:30N 35°13' E 139°46'3 5.7
2017-May-25 09:59N 35°13' E 139°43'4 8.9
2017-May-25 09:30N 35°11' E 139°47'2 3.3
2017-May-25 09:00N 35°10' E 139°49'611.7
2017-May-25 08:30N 35°13' E 139°43'1 1.5
2017-May-25 08:00N 35°13' E 139°44'510.1
2017-May-25 07:30N 35°10' E 139°49'1 1.6
2017-May-25 07:00N 35°11' E 139°48'5 8.9
2017-May-25 06:26N 35°13' E 139°43'2 3.8
2017-May-25 06:00N 35°13' E 139°45'4 8.6
2017-May-25 05:30N 35°10' E 139°49'2 3.9
2017-May-25 05:00N 35°11' E 139°47'4 7.9
2017-May-25 04:30N 35°13' E 139°43'3 5.3
2017-May-25 04:00N 35°12' E 139°46'3 6.7
2017-May-25 03:30N 35°10' E 139°49'3 6.1
2017-May-25 03:00N 35°12' E 139°46'3 5.7
2017-May-25 02:30N 35°13' E 139°43'3 5.2
2017-May-25 02:00N 35°12' E 139°46'3 6.7
2017-May-25 01:30N 35°10' E 139°49'3 5.9
2017-May-25 01:00N 35°12' E 139°46'3 5.8
2017-May-25 00:30N 35°13' E 139°43'3 6.0
2017-May-25 00:00N 35°12' E 139°46'3 6.4
2017-May-24 23:30N 35°10' E 139°49'4 7.6
2017-May-24 23:00N 35°12' E 139°45'2 4.1
2017-May-24 22:30N 35°13' E 139°43'510.7
2017-May-24 22:00N 35°11' E 139°49'0 0.4
2017-May-24 21:30N 35°11' E 139°48'510.3
2017-May-24 21:00N 35°13' E 139°43'0 0.0
2017-May-24 11:36N 35°13' E 139°43'0 3.8
2017-May-24 11:31N 35°13' E 139°43'611.2
2017-May-24 11:00N 35°10' E 139°49'3 5.6
2017-May-24 10:31N 35°11' E 139°46'3 6.2
2017-May-24 10:00N 35°13' E 139°43'4 8.6
2017-May-24 09:31N 35°11' E 139°47'2 3.4
2017-May-24 09:01N 35°10' E 139°49'611.7
2017-May-24 08:31N 35°13' E 139°43'0 0.6
2017-May-24 08:00N 35°13' E 139°43'610.8
2017-May-24 07:30N 35°10' E 139°49'2 4.0
2017-May-24 07:00N 35°12' E 139°47'4 8.0
2017-May-24 06:30N 35°13' E 139°43'1 3.0
2017-May-24 06:01N 35°13' E 139°45'5 8.8
2017-May-24 05:30N 35°10' E 139°49'2 3.8
2017-May-24 05:01N 35°11' E 139°47'4 7.9
2017-May-24 04:30N 35°13' E 139°43'3 5.1
2017-May-24 04:01N 35°12' E 139°46'3 6.6
2017-May-24 03:30N 35°10' E 139°49'3 6.2
2017-May-24 03:00N 35°12' E 139°46'3 5.3
2017-May-24 02:29N 35°13' E 139°43'2 4.8
2017-May-24 02:01N 35°12' E 139°45'4 7.3
2017-May-24 01:31N 35°10' E 139°49'3 5.8
2017-May-24 01:01N 35°12' E 139°46'3 4.8
2017-May-24 00:24N 35°13' E 139°43'2 5.9
2017-May-24 00:01N 35°12' E 139°46'4 7.2
2017-May-23 23:31N 35°10' E 139°49'4 7.8
2017-May-23 23:01N 35°12' E 139°45'2 4.0
2017-May-23 22:31N 35°13' E 139°43'510.5
2017-May-23 22:01N 35°11' E 139°48'0 0.3
2017-May-23 21:31N 35°11' E 139°48'510.1
2017-May-23 21:00N 35°13' E 139°43'0 0.0
2017-May-23 11:37N 35°13' E 139°43'0 3.7
2017-May-23 11:30N 35°13' E 139°43'611.0
2017-May-23 11:00N 35°10' E 139°49'3 6.2
2017-May-23 10:30N 35°12' E 139°46'3 5.7
2017-May-23 10:00N 35°13' E 139°43'4 8.8
2017-May-23 09:30N 35°11' E 139°48'1 2.8
2017-May-23 09:00N 35°10' E 139°49'611.3
2017-May-23 08:30N 35°13' E 139°43'0 0.4
2017-May-23 08:00N 35°13' E 139°43'510.9
2017-May-23 07:30N 35°10' E 139°49'1 2.7
2017-May-23 07:00N 35°11' E 139°48'5 9.0
2017-May-23 06:30N 35°13' E 139°43'2 3.3
2017-May-23 06:00N 35°13' E 139°45'4 8.7
2017-May-23 05:30N 35°10' E 139°49'2 3.7
2017-May-23 05:00N 35°11' E 139°47'4 7.9
2017-May-23 04:30N 35°13' E 139°43'2 4.6
2017-May-23 04:01N 35°12' E 139°45'4 7.2
2017-May-23 03:30N 35°10' E 139°49'3 6.0
2017-May-23 03:00N 35°12' E 139°46'3 6.1
2017-May-23 02:30N 35°13' E 139°43'2 4.8
2017-May-23 02:00N 35°13' E 139°46'4 7.2
2017-May-23 01:30N 35°10' E 139°49'3 5.9
2017-May-23 01:00N 35°12' E 139°46'3 5.8
2017-May-23 00:30N 35°13' E 139°43'2 4.8
2017-May-23 00:00N 35°13' E 139°46'4 7.2
2017-May-22 23:30N 35°10' E 139°49'4 7.7
2017-May-22 23:00N 35°13' E 139°45'2 3.9
2017-May-22 22:28N 35°13' E 139°43'511.2
2017-May-22 22:00N 35°11' E 139°48'0 0.6
2017-May-22 21:30N 35°11' E 139°48'5 9.5
2017-May-22 21:00N 35°13' E 139°43'0 0.0
2017-May-22 11:38N 35°13' E 139°43'0 2.9
2017-May-22 11:30N 35°13' E 139°43'611.1
2017-May-22 11:00N 35°10' E 139°49'3 5.9
2017-May-22 10:30N 35°12' E 139°46'3 6.0
2017-May-22 10:00N 35°13' E 139°43'4 8.6
2017-May-22 09:30N 35°11' E 139°48'1 2.8
2017-May-22 09:01N 35°10' E 139°49'610.9
2017-May-22 08:30N 35°13' E 139°43'0 0.1
2017-May-22 08:00N 35°13' E 139°43'611.1
2017-May-22 07:30N 35°10' E 139°49'1 1.8
2017-May-22 07:00N 35°11' E 139°48'5 9.6
2017-May-22 06:29N 35°13' E 139°43'2 3.2
2017-May-22 06:00N 35°13' E 139°45'4 8.8
2017-May-22 05:30N 35°10' E 139°49'2 3.9
2017-May-22 05:00N 35°11' E 139°47'4 7.7
2017-May-22 04:30N 35°13' E 139°43'3 5.3
2017-May-22 04:00N 35°13' E 139°46'3 7.0
2017-May-22 03:30N 35°10' E 139°49'3 5.7
2017-May-22 03:00N 35°12' E 139°46'3 5.6
2017-May-22 02:28N 35°13' E 139°43'2 5.4
2017-May-22 02:00N 35°12' E 139°46'3 7.0
2017-May-22 01:30N 35°10' E 139°49'3 5.9
2017-May-22 01:00N 35°12' E 139°46'3 5.9
2017-May-22 00:30N 35°13' E 139°43'3 5.1
2017-May-22 00:00N 35°12' E 139°46'3 6.8
2017-May-21 23:30N 35°10' E 139°49'4 7.9
2017-May-21 23:00N 35°12' E 139°45'2 3.9
2017-May-21 22:30N 35°13' E 139°43'611.2
2017-May-21 22:00N 35°10' E 139°49'1 1.4
2017-May-21 21:30N 35°11' E 139°48'5 9.8
2017-May-21 21:00N 35°13' E 139°43'0 0.0
2017-May-21 20:30N 35°13' E 139°43'0 0.0
2017-May-21 11:10N 35°13' E 139°43'1 5.0
2017-May-21 11:00N 35°13' E 139°44'5 5.5
2017-May-21 10:05N 35°10' E 139°49'0 0.0
2017-May-21 09:58N 35°10' E 139°49'4 8.4
2017-May-21 09:30N 35°12' E 139°45'2 4.2
2017-May-21 09:00N 35°13' E 139°43'5 9.0
2017-May-21 08:30N 35°11' E 139°48'1 2.6
2017-May-21 07:59N 35°10' E 139°49'510.2
2017-May-21 07:30N 35°13' E 139°44'1 1.7
2017-May-21 06:54N 35°13' E 139°43'411.1
2017-May-21 06:30N 35°11' E 139°48'2 3.1
2017-May-21 05:59N 35°10' E 139°49'510.0
2017-May-21 05:31N 35°13' E 139°44'1 2.3
2017-May-21 05:01N 35°13' E 139°43'4 6.9
2017-May-21 04:30N 35°12' E 139°47'2 4.9
2017-May-21 04:00N 35°10' E 139°49'5 8.7
2017-May-21 03:26N 35°13' E 139°44'1 2.1
2017-May-21 02:57N 35°13' E 139°43'510.4
2017-May-21 02:31N 35°11' E 139°48'1 2.6
2017-May-21 02:01N 35°10' E 139°49'5 9.8
2017-May-21 01:30N 35°13' E 139°44'1 2.0
2017-May-21 01:00N 35°13' E 139°43'4 8.8
2017-May-21 00:31N 35°11' E 139°48'2 2.9
2017-May-20 23:59N 35°10' E 139°49'610.2
2017-May-20 23:25N 35°13' E 139°43'0 0.6
2017-May-20 23:00N 35°13' E 139°43'4 7.2
2017-May-20 22:31N 35°11' E 139°47'2 4.5
2017-May-20 22:00N 35°10' E 139°49'610.3
2017-May-20 21:26N 35°13' E 139°43'0 0.6
2017-May-20 21:00N 35°13' E 139°43'0 0.0
2017-May-20 11:09N 35°13' E 139°43'1 5.1
2017-May-20 10:59N 35°13' E 139°44'5 8.4
2017-May-20 10:23N 35°10' E 139°49'0 0.0
2017-May-20 09:54N 35°10' E 139°49'410.5
2017-May-20 09:31N 35°13' E 139°45'2 4.0
2017-May-20 08:59N 35°13' E 139°43'5 9.4
2017-May-20 08:29N 35°11' E 139°48'1 2.4
2017-May-20 08:00N 35°10' E 139°49'510.1
2017-May-20 07:30N 35°13' E 139°44'1 1.8
2017-May-20 06:59N 35°13' E 139°43'5 9.3
2017-May-20 06:30N 35°11' E 139°48'1 2.6
2017-May-20 05:58N 35°10' E 139°49'510.6
2017-May-20 05:30N 35°13' E 139°44'1 2.1
2017-May-20 04:59N 35°13' E 139°43'3 6.9
2017-May-20 04:30N 35°12' E 139°47'3 4.9
2017-May-20 03:59N 35°10' E 139°49'4 8.7
2017-May-20 03:30N 35°13' E 139°45'2 3.2
2017-May-20 02:59N 35°13' E 139°43'5 9.3
2017-May-20 02:28N 35°11' E 139°48'1 2.4
2017-May-20 02:00N 35°10' E 139°49'610.4
2017-May-20 01:27N 35°13' E 139°43'0 0.7
2017-May-20 00:59N 35°13' E 139°43'5 9.4
2017-May-20 00:30N 35°11' E 139°48'1 2.6
2017-May-20 00:00N 35°10' E 139°49'5 9.9
2017-May-19 23:30N 35°13' E 139°44'1 2.0
2017-May-19 23:00N 35°13' E 139°43'4 7.0
2017-May-19 22:30N 35°12' E 139°47'2 4.6
2017-May-19 21:59N 35°10' E 139°49'510.1
2017-May-19 21:29N 35°13' E 139°44'1 1.7
2017-May-19 20:59N 35°13' E 139°43'0 0.0
2017-May-19 11:13N 35°13' E 139°43'2 7.8
2017-May-19 11:00N 35°13' E 139°45'4 4.4
2017-May-19 10:02N 35°10' E 139°49'0 0.0
2017-May-19 09:58N 35°10' E 139°49'4 8.1
2017-May-19 09:31N 35°12' E 139°45'2 4.1
2017-May-19 09:00N 35°13' E 139°43'4 9.0
2017-May-19 08:30N 35°11' E 139°48'2 3.0
2017-May-19 08:00N 35°10' E 139°49'5 9.7
2017-May-19 07:30N 35°13' E 139°44'1 1.7
2017-May-19 06:54N 35°13' E 139°43'411.3
2017-May-19 06:30N 35°11' E 139°48'1 2.8
2017-May-19 05:59N 35°10' E 139°49'0 0.0
2017-May-19 05:30N 35°10' E 139°49'6 9.5
2017-May-19 04:53N 35°13' E 139°43'0 0.2
2017-May-19 04:26N 35°13' E 139°43'  

Dump ship's entire track history